createdAt,value
2022-12-08T00:01:19.884Z,100053.50
2022-12-08T00:03:47.263Z,100035.34
2022-12-08T00:06:46.202Z,100048.31
2022-12-08T00:09:39.661Z,100018.44
2022-12-08T00:12:08.502Z,100032.59
2022-12-08T00:14:35.701Z,100039.47
2022-12-08T00:17:05.944Z,100028.66
2022-12-08T00:19:33.643Z,100028.13
2022-12-08T00:22:00.740Z,100019.50
2022-12-08T00:24:32.182Z,100006.56
2022-12-08T00:26:59.141Z,100012.63
2022-12-08T00:29:26.133Z,100003.56
2022-12-08T00:31:53.523Z,100008.00
2022-12-08T00:34:20.869Z,100001.53
2022-12-08T00:36:47.878Z,100003.00
2022-12-08T00:39:15.934Z,99992.25
2022-12-08T00:42:01.797Z,100005.69
2022-12-08T00:44:28.832Z,99992.50
2022-12-08T00:46:56.688Z,100000.19
2022-12-08T00:49:23.848Z,99996.88
2022-12-08T00:51:50.779Z,100007.84
2022-12-08T00:54:18.261Z,100001.72
2022-12-08T00:56:45.316Z,100003.94
2022-12-08T00:59:12.410Z,99990.94
2022-12-08T01:01:39.591Z,99991.38
2022-12-08T01:04:08.892Z,100004.75
2022-12-08T01:06:39.396Z,100005.97
2022-12-08T01:09:08.562Z,100007.38
2022-12-08T01:11:37.038Z,100020.38
2022-12-08T01:14:05.377Z,100031.00
2022-12-08T01:16:35.847Z,100002.75
2022-12-08T01:19:03.883Z,100003.38
2022-12-08T01:21:30.781Z,100002.66
2022-12-08T01:24:00.322Z,100008.94
2022-12-08T01:26:27.658Z,100028.53
2022-12-08T01:28:54.778Z,100000.34
2022-12-08T01:31:22.663Z,100002.88
2022-12-08T01:33:50.215Z,100018.25
2022-12-08T01:36:29.482Z,100010.69
2022-12-08T01:39:02.183Z,99995.53
2022-12-08T01:41:32.717Z,99984.06
2022-12-08T01:44:13.646Z,100001.81
2022-12-08T01:46:46.069Z,99991.31
2022-12-08T01:49:34.942Z,99998.31
2022-12-08T01:52:14.398Z,100029.25
2022-12-08T01:54:49.598Z,100001.34
2022-12-08T01:57:31.207Z,99998.44
2022-12-08T02:00:07.817Z,99992.63
2022-12-08T02:02:53.020Z,100000.50
2022-12-08T02:05:23.351Z,99993.66
2022-12-08T02:07:51.774Z,100010.41
2022-12-08T02:10:23.785Z,100000.53
2022-12-08T02:12:53.592Z,100009.03
2022-12-08T02:15:32.791Z,99986.59
2022-12-08T02:18:11.627Z,99989.44
2022-12-08T02:20:59.983Z,99989.06
2022-12-08T02:24:05.697Z,99984.66
2022-12-08T02:26:50.844Z,99976.28
2022-12-08T02:30:06.058Z,99985.06
2022-12-08T02:32:51.285Z,99976.91
2022-12-08T02:35:32.235Z,99970.88
2022-12-08T02:38:08.735Z,99969.56
2022-12-08T02:40:44.760Z,99970.88
2022-12-08T02:43:27.977Z,99966.88
2022-12-08T02:46:05.744Z,99954.31
2022-12-08T02:48:34.636Z,99959.13
2022-12-08T02:51:01.656Z,99966.25
2022-12-08T02:53:32.232Z,99956.53
2022-12-08T02:56:28.587Z,99965.06
2022-12-08T02:59:01.683Z,99964.81
2022-12-08T03:01:31.538Z,99951.88
2022-12-08T03:04:16.968Z,99950.16
2022-12-08T03:07:11.004Z,99943.78
2022-12-08T03:09:53.005Z,99970.03
2022-12-08T03:12:37.370Z,99937.16
2022-12-08T03:15:13.289Z,99941.47
2022-12-08T03:17:45.640Z,99951.38
2022-12-08T03:20:17.612Z,99941.66
2022-12-08T03:22:49.335Z,99930.44
2022-12-08T03:25:20.947Z,99934.03
2022-12-08T03:27:49.206Z,99919.19
2022-12-08T03:30:16.465Z,99924.63
2022-12-08T03:32:57.960Z,99938.53
2022-12-08T03:35:29.800Z,99943.44
2022-12-08T03:38:10.968Z,99932.94
2022-12-08T03:40:39.335Z,99937.16
2022-12-08T03:43:06.405Z,99918.66
2022-12-08T03:45:33.404Z,99930.09
2022-12-08T03:48:00.515Z,99918.53
2022-12-08T03:50:27.533Z,99921.91
2022-12-08T03:52:54.667Z,99910.66
2022-12-08T03:55:21.666Z,99906.94
2022-12-08T03:57:48.559Z,99915.97
2022-12-08T04:00:17.061Z,99914.78
2022-12-08T04:02:44.198Z,99919.94
2022-12-08T04:05:11.317Z,99916.84
2022-12-08T04:07:38.269Z,99911.22
2022-12-08T04:10:06.181Z,99920.94
2022-12-08T04:12:33.507Z,99902.50
2022-12-08T04:15:00.380Z,99911.22
2022-12-08T04:17:27.522Z,99900.41
2022-12-08T04:19:54.492Z,99903.78
2022-12-08T04:22:21.461Z,99908.16
2022-12-08T04:24:48.644Z,99907.34
2022-12-08T04:27:15.625Z,99898.94
2022-12-08T04:29:42.582Z,99923.97
2022-12-08T04:32:12.058Z,99903.31
2022-12-08T04:34:39.127Z,99912.00
2022-12-08T04:37:06.174Z,99922.47
2022-12-08T04:39:33.114Z,99910.31
2022-12-08T04:42:00.167Z,99902.47
2022-12-08T04:44:27.073Z,99917.75
2022-12-08T04:46:54.272Z,99911.03
2022-12-08T04:49:21.327Z,99905.47
2022-12-08T04:51:48.285Z,99912.25
2022-12-08T04:54:15.327Z,99908.63
2022-12-08T04:56:42.373Z,99905.59
2022-12-08T04:59:09.547Z,99906.69
2022-12-08T05:01:36.705Z,99898.19
2022-12-08T05:04:03.730Z,99912.84
2022-12-08T05:06:30.840Z,99899.38
2022-12-08T05:08:57.851Z,99903.00
2022-12-08T05:11:24.890Z,99895.06
2022-12-08T05:13:51.963Z,99906.34
2022-12-08T05:16:19.112Z,99894.19
2022-12-08T05:18:46.021Z,99884.44
2022-12-08T05:21:13.117Z,99899.31
2022-12-08T05:23:40.155Z,99890.72
2022-12-08T05:26:07.439Z,99890.69
2022-12-08T05:28:43.083Z,99888.44
2022-12-08T05:31:12.794Z,99897.28
2022-12-08T05:33:40.347Z,99899.06
2022-12-08T05:36:08.721Z,99892.97
2022-12-08T05:38:35.927Z,99896.31
2022-12-08T05:41:03.503Z,99888.13
2022-12-08T05:43:30.612Z,99889.78
2022-12-08T05:45:57.561Z,99885.06
2022-12-08T05:48:24.741Z,99886.63
2022-12-08T05:50:52.549Z,99893.88
2022-12-08T05:53:20.636Z,99888.75
2022-12-08T05:55:48.342Z,99892.41
2022-12-08T05:58:17.713Z,99895.94
2022-12-08T06:00:45.399Z,99899.66
2022-12-08T06:03:13.533Z,99911.31
2022-12-08T06:05:41.663Z,99902.44
2022-12-08T06:08:09.380Z,99896.94
2022-12-08T06:10:38.400Z,99896.84
2022-12-08T06:13:05.556Z,99891.47
2022-12-08T06:15:34.931Z,99895.94
2022-12-08T06:18:05.094Z,99899.16
2022-12-08T06:20:32.469Z,99889.44
2022-12-08T06:23:00.085Z,99867.59
2022-12-08T06:25:27.043Z,99885.41
2022-12-08T06:27:54.078Z,99882.50
2022-12-08T06:30:23.195Z,99876.09
2022-12-08T06:32:50.355Z,99874.09
2022-12-08T06:35:17.464Z,99886.44
2022-12-08T06:37:44.410Z,99871.56
2022-12-08T06:40:11.749Z,99868.78
2022-12-08T06:42:46.917Z,99890.59
2022-12-08T06:45:18.181Z,99888.28
2022-12-08T06:47:45.274Z,99881.09
2022-12-08T06:50:14.010Z,99876.72
2022-12-08T06:52:53.250Z,99879.69
2022-12-08T06:55:50.955Z,99880.22
2022-12-08T06:58:10.584Z,99876.28
2022-12-08T07:00:37.748Z,99882.94
2022-12-08T07:03:04.770Z,99893.53
2022-12-08T07:05:31.911Z,99886.31
2022-12-08T07:07:58.892Z,99884.56
2022-12-08T07:10:25.888Z,99891.97
2022-12-08T07:12:52.956Z,99885.41
2022-12-08T07:15:20.098Z,99884.69
2022-12-08T07:17:48.304Z,99880.88
2022-12-08T07:20:15.770Z,99884.06
2022-12-08T07:22:49.085Z,99877.25
2022-12-08T07:25:16.748Z,99897.00
2022-12-08T07:27:43.794Z,99879.63
2022-12-08T07:30:11.020Z,99889.00
2022-12-08T07:32:39.212Z,99883.97
2022-12-08T07:35:07.670Z,99899.03
2022-12-08T07:37:36.027Z,99902.69
2022-12-08T07:40:04.725Z,99895.00
2022-12-08T07:42:32.115Z,99880.66
2022-12-08T07:44:59.329Z,99891.53
2022-12-08T07:47:26.626Z,99881.50
2022-12-08T07:49:53.726Z,99868.78
2022-12-08T07:52:20.867Z,99866.81
2022-12-08T07:54:47.954Z,99887.75
2022-12-08T07:57:15.248Z,99872.91
2022-12-08T07:59:42.264Z,99863.75
2022-12-08T08:02:26.926Z,99857.81
2022-12-08T08:04:54.206Z,99855.63
2022-12-08T08:07:21.320Z,99853.94
2022-12-08T08:09:48.385Z,99842.13
2022-12-08T08:12:30.720Z,99843.03
2022-12-08T08:15:00.367Z,99859.13
2022-12-08T08:17:28.413Z,99839.97
2022-12-08T08:19:55.582Z,99846.03
2022-12-08T08:22:22.624Z,99833.16
2022-12-08T08:24:49.715Z,99860.75
2022-12-08T08:27:17.973Z,99855.44
2022-12-08T08:29:44.896Z,99832.25
2022-12-08T08:32:11.964Z,99842.50
2022-12-08T08:34:39.184Z,99837.78
2022-12-08T08:37:06.154Z,99835.28
2022-12-08T08:39:33.212Z,99856.41
2022-12-08T08:42:00.185Z,99841.97
2022-12-08T08:44:29.087Z,99848.28
2022-12-08T08:46:56.073Z,99841.72
2022-12-08T08:49:24.626Z,99840.28
2022-12-08T08:56:21.944Z,99839.28
2022-12-08T08:58:52.095Z,99840.78
2022-12-08T09:01:23.676Z,99842.47
2022-12-08T09:03:51.206Z,99845.91
2022-12-08T09:06:20.031Z,99840.53
2022-12-08T09:08:48.100Z,99840.16
2022-12-08T09:11:16.365Z,99850.66
2022-12-08T09:13:43.327Z,99840.16
2022-12-08T09:16:12.033Z,99857.66
2022-12-08T09:18:40.812Z,99848.94
2022-12-08T09:21:15.094Z,99844.34
2022-12-08T09:23:43.982Z,99863.41
2022-12-08T09:26:12.225Z,99836.16
2022-12-08T09:28:39.130Z,99838.13
2022-12-08T09:31:06.395Z,99821.41
2022-12-08T09:33:34.225Z,99818.09
2022-12-08T09:36:05.436Z,99839.63
2022-12-08T09:38:32.995Z,99835.38
2022-12-08T09:41:03.219Z,99824.94
2022-12-08T09:43:53.450Z,99840.88
2022-12-08T09:46:24.496Z,99820.50
2022-12-08T09:48:58.365Z,99824.44
2022-12-08T09:51:36.103Z,99816.31
2022-12-08T09:54:24.284Z,99822.03
2022-12-08T09:56:56.398Z,99818.59
2022-12-08T09:59:34.494Z,99830.47
2022-12-08T10:02:02.917Z,99827.81
2022-12-08T10:04:35.889Z,99821.31
2022-12-08T10:07:25.123Z,99811.75
2022-12-08T10:10:34.145Z,99808.25
2022-12-08T10:13:38.145Z,99810.72
2022-12-08T10:16:26.717Z,99821.47
2022-12-08T10:19:09.558Z,99819.88
2022-12-08T10:21:41.092Z,99825.34
2022-12-08T10:24:31.568Z,99815.22
2022-12-08T10:26:59.266Z,99814.47
2022-12-08T10:29:26.245Z,99816.97
2022-12-08T10:31:53.312Z,99816.00
2022-12-08T10:34:24.403Z,99814.44
2022-12-08T10:36:52.657Z,99821.31
2022-12-08T10:39:34.635Z,99818.00
2022-12-08T10:42:22.386Z,99828.16
2022-12-08T10:44:54.992Z,99816.63
2022-12-08T10:47:24.160Z,99819.16
2022-12-08T10:50:18.387Z,99821.47
2022-12-08T10:52:47.203Z,99823.94
2022-12-08T10:55:19.860Z,99820.78
2022-12-08T10:57:49.173Z,99820.75
2022-12-08T11:00:20.268Z,99814.75
2022-12-08T11:02:59.612Z,99811.66
2022-12-08T11:05:35.924Z,99826.16
2022-12-08T11:08:05.884Z,99815.13
2022-12-08T11:10:43.861Z,99817.78
2022-12-08T11:13:26.768Z,99810.34
2022-12-08T11:15:57.516Z,99804.47
2022-12-08T11:18:29.549Z,99808.59
2022-12-08T11:21:06.754Z,99820.25
2022-12-08T11:23:36.682Z,99805.13
2022-12-08T11:26:11.663Z,99799.31
2022-12-08T11:28:39.307Z,99799.31
2022-12-08T11:31:28.081Z,99789.97
2022-12-08T11:33:56.021Z,99799.69
2022-12-08T11:36:27.312Z,99796.03
2022-12-08T11:38:57.841Z,99796.22
2022-12-08T11:41:30.958Z,99813.44
2022-12-08T11:44:35.459Z,99813.16
2022-12-08T11:47:10.740Z,99804.03
2022-12-08T11:49:40.344Z,99801.03
2022-12-08T11:52:42.301Z,99800.69
2022-12-08T11:55:36.983Z,99803.28
2022-12-08T11:58:51.921Z,99809.44
2022-12-08T12:01:22.589Z,99801.28
2022-12-08T12:04:13.941Z,99810.38
2022-12-08T12:07:01.059Z,99818.88
2022-12-08T12:09:28.142Z,99823.00
2022-12-08T12:12:39.312Z,99807.28
2022-12-08T12:15:37.272Z,99828.00
2022-12-08T12:18:40.395Z,99810.94
2022-12-08T12:21:31.983Z,99811.72
2022-12-08T12:24:07.978Z,99814.72
2022-12-08T12:26:39.265Z,99809.59
2022-12-08T12:29:08.485Z,99813.81
2022-12-08T12:31:41.587Z,99807.94
2022-12-08T12:34:18.432Z,99819.78
2022-12-08T12:36:57.659Z,99816.56
2022-12-08T12:39:31.439Z,99814.81
2022-12-08T12:42:04.530Z,99830.00
2022-12-08T12:44:34.682Z,99818.44
2022-12-08T12:47:04.128Z,99819.50
2022-12-08T12:49:40.576Z,99823.72
2022-12-08T12:52:10.529Z,99834.16
2022-12-08T12:55:03.949Z,99847.28
2022-12-08T12:57:51.601Z,99834.16
2022-12-08T13:00:24.593Z,99843.66
2022-12-08T13:02:55.009Z,99841.81
2022-12-08T13:05:33.436Z,99844.72
2022-12-08T13:08:18.498Z,99840.13
2022-12-08T13:11:05.144Z,99840.59
2022-12-08T13:13:33.601Z,99841.13
2022-12-08T13:16:07.598Z,99834.44
2022-12-08T13:18:47.654Z,99846.03
2022-12-08T13:21:19.181Z,99851.69
2022-12-08T13:24:24.890Z,99845.13
2022-12-08T13:27:04.059Z,99843.53
2022-12-08T13:29:35.778Z,99840.91
2022-12-08T13:32:24.236Z,99831.53
2022-12-08T13:35:03.224Z,99840.97
2022-12-08T13:37:52.329Z,99836.06
2022-12-08T13:40:28.282Z,99833.53
2022-12-08T13:43:44.630Z,99844.72
2022-12-08T13:54:09.873Z,99825.94
2022-12-08T13:55:49.540Z,99828.78
2022-12-08T13:57:36.978Z,99828.94
2022-12-08T14:00:16.076Z,99827.34
2022-12-08T14:02:49.938Z,99833.28
2022-12-08T14:05:29.710Z,99825.09
2022-12-08T14:08:25.098Z,99822.19
2022-12-08T14:11:05.351Z,99829.56
2022-12-08T14:13:34.165Z,99832.47
2022-12-08T14:16:15.933Z,99827.78
2022-12-08T14:18:45.706Z,99841.41
2022-12-08T14:21:35.966Z,99838.13
2022-12-08T14:24:06.246Z,99843.03
2022-12-08T14:26:36.695Z,99851.63
2022-12-08T14:29:44.433Z,99857.47
2022-12-08T14:32:24.422Z,99858.53
2022-12-08T14:35:02.375Z,99861.44
2022-12-08T14:37:41.343Z,99863.91
2022-12-08T14:40:45.454Z,99862.81
2022-12-08T14:43:23.459Z,99865.72
2022-12-08T14:45:55.056Z,99862.16
2022-12-08T14:48:27.938Z,99861.84
2022-12-08T14:51:04.017Z,99871.06
2022-12-08T14:53:41.121Z,99867.69
2022-12-08T14:56:37.262Z,99868.94
2022-12-08T14:59:19.427Z,99879.97
2022-12-08T15:02:09.052Z,99891.00
2022-12-08T15:04:46.342Z,99884.47
2022-12-08T15:07:17.432Z,99896.03
2022-12-08T15:09:50.703Z,99887.88
2022-12-08T15:12:40.223Z,99892.53
2022-12-08T15:15:09.887Z,99889.34
2022-12-08T15:18:04.854Z,99897.31
2022-12-08T15:20:52.408Z,99901.53
2022-12-08T15:23:24.215Z,99904.81
2022-12-08T15:25:56.473Z,99901.34
2022-12-08T15:28:30.712Z,99920.44
2022-12-08T15:31:01.619Z,99909.63
2022-12-08T15:33:34.042Z,99909.78
2022-12-08T15:36:10.040Z,99919.81
2022-12-08T15:38:42.498Z,99925.81
2022-12-08T15:41:15.095Z,99940.13
2022-12-08T15:43:56.253Z,99930.22
2022-12-08T15:46:27.743Z,99927.31
2022-12-08T15:48:58.201Z,99920.56
2022-12-08T15:51:37.355Z,99923.25
2022-12-08T15:54:04.525Z,99919.75
2022-12-08T15:56:34.228Z,99921.00
2022-12-08T15:59:07.268Z,99928.34
2022-12-08T16:01:37.186Z,99917.31
2022-12-08T16:05:11.505Z,99923.44
2022-12-08T16:07:21.349Z,99931.28
2022-12-08T16:10:06.504Z,99923.03
2022-12-08T16:13:54.709Z,99932.72
2022-12-08T16:15:59.262Z,99929.84
2022-12-08T16:18:35.153Z,99929.94
2022-12-08T16:21:16.949Z,99925.66
2022-12-08T16:23:54.027Z,99931.13
2022-12-08T16:29:20.258Z,99932.81
2022-12-08T16:31:48.192Z,99930.44
2022-12-08T16:34:16.244Z,99929.00
2022-12-08T16:36:45.859Z,99935.94
2022-12-08T16:39:14.266Z,99935.41
2022-12-08T16:42:00.039Z,99945.38
2022-12-08T16:44:39.682Z,99930.91
2022-12-08T16:47:10.580Z,99936.16
2022-12-08T16:49:39.317Z,99938.88
2022-12-08T16:52:08.575Z,99929.34
2022-12-08T16:54:35.802Z,99930.69
2022-12-08T16:57:03.195Z,99942.06
2022-12-08T16:59:31.217Z,99936.59
2022-12-08T17:01:58.230Z,99934.56
2022-12-08T17:04:32.668Z,99931.50
2022-12-08T17:06:59.681Z,99930.81
2022-12-08T17:09:28.653Z,99931.56
2022-12-08T17:12:01.897Z,99931.16
2022-12-08T17:14:35.814Z,99933.88
2022-12-08T17:17:04.201Z,99925.94
2022-12-08T17:19:36.432Z,99930.03
2022-12-08T17:22:04.016Z,99925.41
2022-12-08T17:24:35.170Z,99926.00
2022-12-08T17:27:06.646Z,99927.66
2022-12-08T17:29:39.187Z,99924.69
2022-12-08T17:32:09.794Z,99929.56
2022-12-08T17:34:40.678Z,99934.88
2022-12-08T17:37:09.728Z,99927.38
2022-12-08T17:39:42.526Z,99947.19
2022-12-08T17:42:10.334Z,99933.34
2022-12-08T17:44:37.743Z,99925.22
2022-12-08T17:47:06.340Z,99930.34
2022-12-08T17:49:36.707Z,99940.00
2022-12-08T17:52:07.030Z,99944.75
2022-12-08T17:54:34.396Z,99940.66
2022-12-08T17:57:04.236Z,99944.13
2022-12-08T17:59:31.864Z,99942.00
2022-12-08T18:02:00.045Z,99946.06
2022-12-08T18:04:28.740Z,99955.00
2022-12-08T18:06:58.458Z,99964.22
2022-12-08T18:09:25.882Z,99953.31
2022-12-08T18:11:53.409Z,99953.34
2022-12-08T18:14:20.574Z,99946.34
2022-12-08T18:16:48.290Z,99956.72
2022-12-08T18:19:16.262Z,99940.94
2022-12-08T18:21:43.880Z,99952.03
2022-12-08T18:24:21.246Z,99957.34
2022-12-08T18:26:55.410Z,99960.53
2022-12-08T18:29:23.066Z,99955.22
2022-12-08T18:31:51.471Z,99955.50
2022-12-08T18:34:19.284Z,99956.00
2022-12-08T18:36:47.124Z,99955.13
2022-12-08T18:39:23.054Z,99956.00
2022-12-08T18:41:50.703Z,99963.25
2022-12-08T18:44:18.042Z,99978.88
2022-12-08T18:46:45.376Z,99973.53
2022-12-08T18:49:14.321Z,99974.81
2022-12-08T18:51:42.126Z,99977.34
2022-12-08T18:54:09.997Z,99971.53
2022-12-08T18:56:37.713Z,99968.81
2022-12-08T18:59:08.232Z,99971.88
2022-12-08T19:01:37.824Z,99960.44
2022-12-08T19:06:56.512Z,99971.28
2022-12-08T19:09:25.708Z,99975.69
2022-12-08T19:11:52.971Z,99966.22
2022-12-08T19:14:25.756Z,99966.59
2022-12-08T19:16:54.956Z,99967.72
2022-12-08T19:19:21.969Z,99970.16
2022-12-08T19:21:49.068Z,99967.19
2022-12-08T19:24:18.419Z,99969.91
2022-12-08T19:26:48.121Z,99973.97
2022-12-08T19:29:15.880Z,99983.91
2022-12-08T19:31:43.584Z,99976.31
2022-12-08T19:34:14.962Z,99976.22
2022-12-08T19:36:45.988Z,99977.44
2022-12-08T19:39:41.009Z,99984.03
2022-12-08T19:42:38.236Z,99982.84
2022-12-08T19:45:14.655Z,99980.66
2022-12-08T19:47:44.409Z,99975.03
2022-12-08T19:50:32.498Z,99983.25
2022-12-08T19:52:59.645Z,99981.66
2022-12-08T19:55:27.688Z,99985.75
2022-12-08T19:57:56.857Z,99986.53
2022-12-08T20:00:24.321Z,99984.94
2022-12-08T20:02:51.688Z,99976.97
2022-12-08T20:05:21.946Z,99973.59
2022-12-08T20:07:55.694Z,99974.63
2022-12-08T20:10:29.740Z,99969.38
2022-12-08T20:13:17.346Z,99964.16
2022-12-08T20:15:45.071Z,99971.16
2022-12-08T20:18:13.577Z,99984.16
2022-12-08T20:20:41.531Z,99986.59
2022-12-08T20:23:09.212Z,99988.19
2022-12-08T20:25:41.130Z,99990.63
2022-12-08T20:28:08.686Z,99996.19
2022-12-08T20:30:38.397Z,99994.31
2022-12-08T20:33:05.292Z,99991.25
2022-12-08T20:35:32.386Z,99994.63
2022-12-08T20:37:59.424Z,99994.44
2022-12-08T20:40:26.462Z,99992.38
2022-12-08T20:42:53.448Z,99986.75
2022-12-08T20:45:20.412Z,99989.75
2022-12-08T20:47:47.514Z,99978.16
2022-12-08T20:50:14.721Z,99976.47
2022-12-08T20:52:43.975Z,99979.25
2022-12-08T20:55:11.162Z,99980.19
2022-12-08T20:57:39.591Z,99987.56
2022-12-08T21:00:08.003Z,99989.94
2022-12-08T21:02:35.497Z,99987.84
2022-12-08T21:05:02.787Z,99988.22
2022-12-08T21:07:30.840Z,99995.59
2022-12-08T21:09:58.051Z,99997.19
2022-12-08T21:12:25.341Z,99995.25
2022-12-08T21:14:52.808Z,99990.09
2022-12-08T21:17:19.979Z,99985.34
2022-12-08T21:19:47.126Z,99988.72
2022-12-08T21:22:14.365Z,99978.91
2022-12-08T21:24:41.532Z,99982.63
2022-12-08T21:27:09.024Z,99984.69
2022-12-08T21:29:36.202Z,99970.44
2022-12-08T21:32:03.997Z,99981.84
2022-12-08T21:34:32.046Z,99984.81
2022-12-08T21:36:59.165Z,99988.09
2022-12-08T21:39:27.063Z,99989.81
2022-12-08T21:42:13.097Z,99993.44
2022-12-08T21:44:40.473Z,99989.44
2022-12-08T21:47:08.075Z,99994.81
2022-12-08T21:49:35.319Z,99989.50
2022-12-08T21:52:02.315Z,100004.28
2022-12-08T21:54:29.319Z,100000.72
2022-12-08T22:57:54.245Z,100010.00
2022-12-08T23:00:21.270Z,100022.47
2022-12-08T23:02:48.591Z,100014.59
2022-12-08T23:05:16.413Z,100019.84
2022-12-08T23:07:44.041Z,100013.75
2022-12-08T23:10:11.600Z,100001.59
2022-12-08T23:12:39.800Z,100002.50
2022-12-08T23:15:07.326Z,100006.47
2022-12-08T23:17:34.755Z,99998.22
2022-12-08T23:20:02.269Z,100007.28
2022-12-08T23:22:30.364Z,100016.75
2022-12-08T23:24:57.565Z,100014.22
2022-12-08T23:27:24.579Z,100011.78
2022-12-08T23:29:51.880Z,100017.59
2022-12-08T23:32:19.190Z,100013.19
2022-12-08T23:34:47.008Z,100012.56
2022-12-08T23:37:14.357Z,100022.94
2022-12-08T23:39:41.652Z,100021.84
2022-12-08T23:42:08.754Z,100012.44
2022-12-08T23:44:35.774Z,100017.31
2022-12-08T23:47:02.782Z,100015.06
2022-12-08T23:49:29.895Z,100018.44
2022-12-08T23:51:56.900Z,100019.75
2022-12-08T23:54:23.899Z,100016.19
2022-12-08T23:56:51.079Z,100021.63
2022-12-08T23:59:18.248Z,100012.25
